sensor_id;sensor_type;location;lat;lon;timestamp;P1;durP1;ratioP1;P2;durP2;ratioP2
64684;SDS011;51109;47.414;18.954;2023-09-08T00:01:55;7.50;;;3.60;;
64684;SDS011;51109;47.414;18.954;2023-09-08T00:04:21;5.00;;;3.13;;
64684;SDS011;51109;47.414;18.954;2023-09-08T00:06:48;5.95;;;3.45;;
64684;SDS011;51109;47.414;18.954;2023-09-08T00:09:14;4.22;;;3.17;;
64684;SDS011;51109;47.414;18.954;2023-09-08T00:11:40;3.78;;;3.08;;
64684;SDS011;51109;47.414;18.954;2023-09-08T00:14:05;6.38;;;3.53;;
64684;SDS011;51109;47.414;18.954;2023-09-08T00:16:31;4.45;;;2.95;;
64684;SDS011;51109;47.414;18.954;2023-09-08T00:18:57;4.40;;;3.05;;
64684;SDS011;51109;47.414;18.954;2023-09-08T00:21:24;7.22;;;3.92;;
64684;SDS011;51109;47.414;18.954;2023-09-08T00:23:50;5.80;;;3.55;;
64684;SDS011;51109;47.414;18.954;2023-09-08T00:26:17;4.13;;;3.65;;
64684;SDS011;51109;47.414;18.954;2023-09-08T00:28:43;4.28;;;3.10;;
64684;SDS011;51109;47.414;18.954;2023-09-08T00:31:09;4.78;;;3.50;;
64684;SDS011;51109;47.414;18.954;2023-09-08T00:33:35;4.50;;;3.33;;
64684;SDS011;51109;47.414;18.954;2023-09-08T00:36:01;8.07;;;3.78;;
64684;SDS011;51109;47.414;18.954;2023-09-08T00:38:26;5.53;;;3.70;;
64684;SDS011;51109;47.414;18.954;2023-09-08T00:40:52;5.22;;;3.25;;
64684;SDS011;51109;47.414;18.954;2023-09-08T00:43:18;4.22;;;3.60;;
64684;SDS011;51109;47.414;18.954;2023-09-08T00:45:44;4.07;;;3.20;;
64684;SDS011;51109;47.414;18.954;2023-09-08T00:48:11;5.82;;;3.65;;
64684;SDS011;51109;47.414;18.954;2023-09-08T00:50:38;7.68;;;3.95;;
64684;SDS011;51109;47.414;18.954;2023-09-08T00:53:04;6.53;;;3.65;;
64684;SDS011;51109;47.414;18.954;2023-09-08T00:55:32;4.97;;;3.67;;
64684;SDS011;51109;47.414;18.954;2023-09-08T00:57:58;10.27;;;3.90;;
64684;SDS011;51109;47.414;18.954;2023-09-08T01:00:25;5.93;;;3.40;;
64684;SDS011;51109;47.414;18.954;2023-09-08T01:02:51;8.23;;;3.63;;
64684;SDS011;51109;47.414;18.954;2023-09-08T01:05:17;6.03;;;3.60;;
64684;SDS011;51109;47.414;18.954;2023-09-08T01:07:44;6.15;;;3.72;;
64684;SDS011;51109;47.414;18.954;2023-09-08T01:10:11;5.60;;;3.47;;
64684;SDS011;51109;47.414;18.954;2023-09-08T01:12:38;6.53;;;3.55;;
64684;SDS011;51109;47.414;18.954;2023-09-08T01:15:05;5.05;;;3.70;;
64684;SDS011;51109;47.414;18.954;2023-09-08T01:17:32;6.07;;;3.50;;
64684;SDS011;51109;47.414;18.954;2023-09-08T01:20:05;4.38;;;3.00;;
64684;SDS011;51109;47.414;18.954;2023-09-08T01:28:05;4.60;;;3.53;;
64684;SDS011;51109;47.414;18.954;2023-09-08T01:30:32;5.95;;;3.97;;
64684;SDS011;51109;47.414;18.954;2023-09-08T01:32:59;5.78;;;3.65;;
64684;SDS011;51109;47.414;18.954;2023-09-08T01:35:25;4.50;;;3.47;;
64684;SDS011;51109;47.414;18.954;2023-09-08T01:37:51;4.82;;;3.53;;
64684;SDS011;51109;47.414;18.954;2023-09-08T01:40:17;5.60;;;4.00;;
64684;SDS011;51109;47.414;18.954;2023-09-08T01:42:44;5.50;;;3.50;;
64684;SDS011;51109;47.414;18.954;2023-09-08T01:45:10;4.53;;;3.47;;
64684;SDS011;51109;47.414;18.954;2023-09-08T01:47:36;4.45;;;3.08;;
64684;SDS011;51109;47.414;18.954;2023-09-08T01:50:02;5.35;;;3.50;;
64684;SDS011;51109;47.414;18.954;2023-09-08T01:52:28;5.45;;;3.40;;
64684;SDS011;51109;47.414;18.954;2023-09-08T01:54:54;5.25;;;3.58;;
64684;SDS011;51109;47.414;18.954;2023-09-08T01:57:20;4.05;;;3.38;;
64684;SDS011;51109;47.414;18.954;2023-09-08T01:59:46;6.68;;;3.40;;
64684;SDS011;51109;47.414;18.954;2023-09-08T02:02:13;3.63;;;2.88;;
64684;SDS011;51109;47.414;18.954;2023-09-08T02:04:39;4.47;;;3.22;;
64684;SDS011;51109;47.414;18.954;2023-09-08T02:07:05;4.90;;;3.50;;
64684;SDS011;51109;47.414;18.954;2023-09-08T02:09:34;4.68;;;3.17;;
64684;SDS011;51109;47.414;18.954;2023-09-08T02:12:02;3.95;;;3.45;;
64684;SDS011;51109;47.414;18.954;2023-09-08T02:14:28;6.65;;;3.70;;
64684;SDS011;51109;47.414;18.954;2023-09-08T02:16:55;4.97;;;3.83;;
64684;SDS011;51109;47.414;18.954;2023-09-08T02:19:21;4.82;;;3.35;;
64684;SDS011;51109;47.414;18.954;2023-09-08T02:21:47;4.28;;;3.35;;
64684;SDS011;51109;47.414;18.954;2023-09-08T02:24:13;4.45;;;3.47;;
64684;SDS011;51109;47.414;18.954;2023-09-08T02:26:40;6.35;;;3.78;;
64684;SDS011;51109;47.414;18.954;2023-09-08T02:29:06;5.07;;;3.17;;
64684;SDS011;51109;47.414;18.954;2023-09-08T02:31:32;5.15;;;2.95;;
64684;SDS011;51109;47.414;18.954;2023-09-08T02:33:58;8.13;;;4.00;;
64684;SDS011;51109;47.414;18.954;2023-09-08T02:36:24;4.45;;;3.38;;
64684;SDS011;51109;47.414;18.954;2023-09-08T02:38:51;6.03;;;4.15;;
64684;SDS011;51109;47.414;18.954;2023-09-08T02:41:21;4.78;;;3.50;;
64684;SDS011;51109;47.414;18.954;2023-09-08T02:43:47;4.22;;;3.25;;
64684;SDS011;51109;47.414;18.954;2023-09-08T02:46:13;5.90;;;3.70;;
64684;SDS011;51109;47.414;18.954;2023-09-08T02:48:39;5.30;;;3.45;;
64684;SDS011;51109;47.414;18.954;2023-09-08T02:51:06;6.07;;;4.03;;
64684;SDS011;51109;47.414;18.954;2023-09-08T02:53:32;5.22;;;3.78;;
64684;SDS011;51109;47.414;18.954;2023-09-08T02:55:58;4.38;;;3.08;;
64684;SDS011;51109;47.414;18.954;2023-09-08T02:58:25;6.43;;;3.88;;
64684;SDS011;51109;47.414;18.954;2023-09-08T03:00:52;6.20;;;4.07;;
64684;SDS011;51109;47.414;18.954;2023-09-08T03:03:18;4.68;;;3.55;;
64684;SDS011;51109;47.414;18.954;2023-09-08T03:05:45;5.57;;;3.67;;
64684;SDS011;51109;47.414;18.954;2023-09-08T03:08:11;5.80;;;3.70;;
64684;SDS011;51109;47.414;18.954;2023-09-08T03:10:37;6.65;;;4.20;;
64684;SDS011;51109;47.414;18.954;2023-09-08T03:13:04;5.70;;;3.90;;
64684;SDS011;51109;47.414;18.954;2023-09-08T03:15:30;6.28;;;3.85;;
64684;SDS011;51109;47.414;18.954;2023-09-08T03:17:56;4.55;;;3.58;;
64684;SDS011;51109;47.414;18.954;2023-09-08T03:20:26;4.78;;;3.47;;
64684;SDS011;51109;47.414;18.954;2023-09-08T03:22:53;3.80;;;3.40;;
64684;SDS011;51109;47.414;18.954;2023-09-08T03:25:19;6.43;;;3.95;;
64684;SDS011;51109;47.414;18.954;2023-09-08T03:27:46;6.90;;;3.85;;
64684;SDS011;51109;47.414;18.954;2023-09-08T03:32:41;5.40;;;3.45;;
64684;SDS011;51109;47.414;18.954;2023-09-08T03:35:07;5.57;;;3.85;;
64684;SDS011;51109;47.414;18.954;2023-09-08T03:37:34;5.68;;;4.18;;
64684;SDS011;51109;47.414;18.954;2023-09-08T03:40:01;4.72;;;3.85;;
64684;SDS011;51109;47.414;18.954;2023-09-08T03:42:28;4.93;;;4.30;;
64684;SDS011;51109;47.414;18.954;2023-09-08T03:44:54;8.23;;;4.38;;
64684;SDS011;51109;47.414;18.954;2023-09-08T03:47:20;5.60;;;4.15;;
64684;SDS011;51109;47.414;18.954;2023-09-08T03:49:46;6.05;;;4.15;;
64684;SDS011;51109;47.414;18.954;2023-09-08T03:52:12;6.43;;;4.32;;
64684;SDS011;51109;47.414;18.954;2023-09-08T03:54:37;5.20;;;4.40;;
64684;SDS011;51109;47.414;18.954;2023-09-08T03:57:03;4.15;;;3.75;;
64684;SDS011;51109;47.414;18.954;2023-09-08T03:59:29;6.45;;;4.53;;
64684;SDS011;51109;47.414;18.954;2023-09-08T04:01:55;5.18;;;4.00;;
64684;SDS011;51109;47.414;18.954;2023-09-08T04:04:21;6.38;;;4.55;;
64684;SDS011;51109;47.414;18.954;2023-09-08T04:06:47;4.63;;;3.75;;
64684;SDS011;51109;47.414;18.954;2023-09-08T04:09:13;9.52;;;4.65;;
64684;SDS011;51109;47.414;18.954;2023-09-08T04:11:39;6.40;;;4.53;;
64684;SDS011;51109;47.414;18.954;2023-09-08T04:14:05;6.85;;;4.38;;
64684;SDS011;51109;47.414;18.954;2023-09-08T04:16:30;8.05;;;5.05;;
64684;SDS011;51109;47.414;18.954;2023-09-08T04:18:56;7.47;;;4.72;;
64684;SDS011;51109;47.414;18.954;2023-09-08T04:21:22;8.32;;;4.43;;
64684;SDS011;51109;47.414;18.954;2023-09-08T04:23:48;7.43;;;4.40;;
64684;SDS011;51109;47.414;18.954;2023-09-08T04:26:14;6.70;;;4.40;;
64684;SDS011;51109;47.414;18.954;2023-09-08T04:28:39;5.32;;;4.20;;
64684;SDS011;51109;47.414;18.954;2023-09-08T04:31:05;5.80;;;3.97;;
64684;SDS011;51109;47.414;18.954;2023-09-08T04:33:31;6.68;;;4.75;;
64684;SDS011;51109;47.414;18.954;2023-09-08T04:35:57;7.20;;;4.80;;
64684;SDS011;51109;47.414;18.954;2023-09-08T04:38:23;6.72;;;4.50;;
64684;SDS011;51109;47.414;18.954;2023-09-08T04:40:48;8.23;;;5.10;;
64684;SDS011;51109;47.414;18.954;2023-09-08T04:43:14;6.85;;;4.35;;
64684;SDS011;51109;47.414;18.954;2023-09-08T04:45:40;7.10;;;4.38;;
64684;SDS011;51109;47.414;18.954;2023-09-08T04:48:06;5.47;;;4.38;;
64684;SDS011;51109;47.414;18.954;2023-09-08T04:50:32;8.73;;;4.70;;
64684;SDS011;51109;47.414;18.954;2023-09-08T04:52:58;6.55;;;4.47;;
64684;SDS011;51109;47.414;18.954;2023-09-08T04:55:24;8.10;;;4.47;;
64684;SDS011;51109;47.414;18.954;2023-09-08T04:57:49;10.35;;;4.50;;
64684;SDS011;51109;47.414;18.954;2023-09-08T05:00:15;5.72;;;4.15;;
64684;SDS011;51109;47.414;18.954;2023-09-08T05:02:42;8.20;;;4.97;;
64684;SDS011;51109;47.414;18.954;2023-09-08T05:05:08;6.10;;;4.03;;
64684;SDS011;51109;47.414;18.954;2023-09-08T05:07:33;9.80;;;4.60;;
64684;SDS011;51109;47.414;18.954;2023-09-08T05:09:59;7.15;;;4.53;;
64684;SDS011;51109;47.414;18.954;2023-09-08T05:12:25;9.05;;;4.72;;
64684;SDS011;51109;47.414;18.954;2023-09-08T05:14:51;7.15;;;4.53;;
64684;SDS011;51109;47.414;18.954;2023-09-08T05:17:21;7.70;;;4.85;;
64684;SDS011;51109;47.414;18.954;2023-09-08T05:19:48;7.68;;;4.60;;
64684;SDS011;51109;47.414;18.954;2023-09-08T05:22:14;8.93;;;4.60;;
64684;SDS011;51109;47.414;18.954;2023-09-08T05:24:40;5.78;;;4.82;;
64684;SDS011;51109;47.414;18.954;2023-09-08T05:27:06;7.20;;;4.80;;
64684;SDS011;51109;47.414;18.954;2023-09-08T05:29:31;7.22;;;4.22;;
64684;SDS011;51109;47.414;18.954;2023-09-08T05:31:57;5.82;;;4.05;;
64684;SDS011;51109;47.414;18.954;2023-09-08T05:34:23;9.27;;;4.63;;
64684;SDS011;51109;47.414;18.954;2023-09-08T05:36:49;7.05;;;4.55;;
64684;SDS011;51109;47.414;18.954;2023-09-08T05:39:15;7.03;;;4.35;;
64684;SDS011;51109;47.414;18.954;2023-09-08T05:41:42;6.60;;;4.25;;
64684;SDS011;51109;47.414;18.954;2023-09-08T05:44:08;6.80;;;4.30;;
64684;SDS011;51109;47.414;18.954;2023-09-08T05:46:34;6.32;;;4.15;;
64684;SDS011;51109;47.414;18.954;2023-09-08T05:49:00;6.05;;;4.50;;
64684;SDS011;51109;47.414;18.954;2023-09-08T05:51:26;6.30;;;4.35;;
64684;SDS011;51109;47.414;18.954;2023-09-08T05:53:51;6.55;;;4.28;;
64684;SDS011;51109;47.414;18.954;2023-09-08T05:56:18;5.35;;;4.28;;
64684;SDS011;51109;47.414;18.954;2023-09-08T05:58:45;7.30;;;4.93;;
64684;SDS011;51109;47.414;18.954;2023-09-08T06:01:11;7.55;;;4.45;;
64684;SDS011;51109;47.414;18.954;2023-09-08T06:03:37;5.45;;;3.67;;
64684;SDS011;51109;47.414;18.954;2023-09-08T06:06:02;6.75;;;4.63;;
64684;SDS011;51109;47.414;18.954;2023-09-08T06:08:28;6.13;;;4.82;;
64684;SDS011;51109;47.414;18.954;2023-09-08T06:10:54;6.25;;;4.30;;
64684;SDS011;51109;47.414;18.954;2023-09-08T06:13:20;7.25;;;4.15;;
64684;SDS011;51109;47.414;18.954;2023-09-08T06:15:46;5.80;;;4.35;;
64684;SDS011;51109;47.414;18.954;2023-09-08T06:18:11;4.80;;;3.67;;
64684;SDS011;51109;47.414;18.954;2023-09-08T06:20:43;5.75;;;4.70;;
64684;SDS011;51109;47.414;18.954;2023-09-08T06:23:12;5.57;;;4.20;;
64684;SDS011;51109;47.414;18.954;2023-09-08T06:25:39;8.07;;;4.68;;
64684;SDS011;51109;47.414;18.954;2023-09-08T06:28:05;5.93;;;4.68;;
64684;SDS011;51109;47.414;18.954;2023-09-08T06:30:31;6.68;;;4.32;;
64684;SDS011;51109;47.414;18.954;2023-09-08T06:32:57;6.10;;;4.25;;
64684;SDS011;51109;47.414;18.954;2023-09-08T06:35:23;8.93;;;3.92;;
64684;SDS011;51109;47.414;18.954;2023-09-08T06:37:48;4.10;;;3.42;;
64684;SDS011;51109;47.414;18.954;2023-09-08T06:40:14;7.00;;;4.53;;
64684;SDS011;51109;47.414;18.954;2023-09-08T06:42:40;7.00;;;4.50;;
64684;SDS011;51109;47.414;18.954;2023-09-08T06:45:06;7.55;;;4.53;;
64684;SDS011;51109;47.414;18.954;2023-09-08T06:47:32;5.38;;;4.22;;
64684;SDS011;51109;47.414;18.954;2023-09-08T06:49:58;8.50;;;3.78;;
64684;SDS011;51109;47.414;18.954;2023-09-08T06:52:24;7.00;;;4.53;;
64684;SDS011;51109;47.414;18.954;2023-09-08T06:54:50;7.88;;;3.88;;
64684;SDS011;51109;47.414;18.954;2023-09-08T06:57:17;5.22;;;3.75;;
64684;SDS011;51109;47.414;18.954;2023-09-08T06:59:45;4.93;;;3.97;;
64684;SDS011;51109;47.414;18.954;2023-09-08T07:02:11;6.38;;;4.38;;
64684;SDS011;51109;47.414;18.954;2023-09-08T07:04:37;6.50;;;4.80;;
64684;SDS011;51109;47.414;18.954;2023-09-08T07:07:03;4.20;;;3.75;;
64684;SDS011;51109;47.414;18.954;2023-09-08T07:09:32;3.88;;;3.40;;
64684;SDS011;51109;47.414;18.954;2023-09-08T07:11:59;6.00;;;3.72;;
64684;SDS011;51109;47.414;18.954;2023-09-08T07:14:25;4.28;;;3.80;;
64684;SDS011;51109;47.414;18.954;2023-09-08T07:16:51;5.20;;;3.88;;
64684;SDS011;51109;47.414;18.954;2023-09-08T07:19:17;7.55;;;4.55;;
64684;SDS011;51109;47.414;18.954;2023-09-08T07:21:43;6.68;;;3.88;;
64684;SDS011;51109;47.414;18.954;2023-09-08T07:24:08;4.82;;;3.65;;
64684;SDS011;51109;47.414;18.954;2023-09-08T07:26:34;6.35;;;3.97;;
64684;SDS011;51109;47.414;18.954;2023-09-08T07:29:00;5.38;;;3.70;;
64684;SDS011;51109;47.414;18.954;2023-09-08T07:31:26;6.68;;;4.63;;
64684;SDS011;51109;47.414;18.954;2023-09-08T07:33:52;7.40;;;4.00;;
64684;SDS011;51109;47.414;18.954;2023-09-08T07:36:18;6.50;;;4.30;;
64684;SDS011;51109;47.414;18.954;2023-09-08T07:38:43;7.43;;;4.05;;
64684;SDS011;51109;47.414;18.954;2023-09-08T07:41:09;5.38;;;4.28;;
64684;SDS011;51109;47.414;18.954;2023-09-08T07:43:35;7.03;;;4.28;;
64684;SDS011;51109;47.414;18.954;2023-09-08T07:46:05;6.90;;;4.18;;
64684;SDS011;51109;47.414;18.954;2023-09-08T07:48:32;8.88;;;4.10;;
64684;SDS011;51109;47.414;18.954;2023-09-08T07:50:58;6.20;;;4.38;;
64684;SDS011;51109;47.414;18.954;2023-09-08T07:53:28;4.45;;;4.00;;
64684;SDS011;51109;47.414;18.954;2023-09-08T07:55:53;5.35;;;3.85;;
64684;SDS011;51109;47.414;18.954;2023-09-08T07:58:19;6.25;;;4.43;;
64684;SDS011;51109;47.414;18.954;2023-09-08T08:00:46;5.32;;;3.75;;
64684;SDS011;51109;47.414;18.954;2023-09-08T08:03:12;5.90;;;4.15;;
64684;SDS011;51109;47.414;18.954;2023-09-08T08:05:38;5.72;;;4.05;;
64684;SDS011;51109;47.414;18.954;2023-09-08T08:08:04;6.00;;;3.65;;
64684;SDS011;51109;47.414;18.954;2023-09-08T08:10:49;6.80;;;3.90;;
64684;SDS011;51109;47.414;18.954;2023-09-08T08:13:34;7.15;;;4.22;;
64684;SDS011;51109;47.414;18.954;2023-09-08T08:16:15;5.95;;;3.92;;
64684;SDS011;51109;47.414;18.954;2023-09-08T08:18:41;6.72;;;4.03;;
64684;SDS011;51109;47.414;18.954;2023-09-08T08:21:07;5.88;;;3.90;;
64684;SDS011;51109;47.414;18.954;2023-09-08T08:23:33;5.72;;;4.25;;
64684;SDS011;51109;47.414;18.954;2023-09-08T08:25:59;4.72;;;3.90;;
64684;SDS011;51109;47.414;18.954;2023-09-08T08:28:25;7.82;;;3.65;;
64684;SDS011;51109;47.414;18.954;2023-09-08T08:30:51;6.25;;;4.22;;
64684;SDS011;51109;47.414;18.954;2023-09-08T08:33:17;6.40;;;4.20;;
64684;SDS011;51109;47.414;18.954;2023-09-08T08:35:48;6.35;;;3.63;;
64684;SDS011;51109;47.414;18.954;2023-09-08T08:38:15;8.43;;;3.88;;
64684;SDS011;51109;47.414;18.954;2023-09-08T08:40:41;4.82;;;3.50;;
64684;SDS011;51109;47.414;18.954;2023-09-08T08:43:07;5.88;;;4.47;;
64684;SDS011;51109;47.414;18.954;2023-09-08T08:45:33;5.90;;;3.80;;
64684;SDS011;51109;47.414;18.954;2023-09-08T08:48:01;7.15;;;4.10;;
64684;SDS011;51109;47.414;18.954;2023-09-08T08:50:28;6.05;;;4.38;;
64684;SDS011;51109;47.414;18.954;2023-09-08T08:52:56;6.07;;;4.70;;
64684;SDS011;51109;47.414;18.954;2023-09-08T08:55:23;5.07;;;3.80;;
64684;SDS011;51109;47.414;18.954;2023-09-08T08:57:51;5.70;;;4.07;;
64684;SDS011;51109;47.414;18.954;2023-09-08T09:00:17;5.07;;;3.95;;
64684;SDS011;51109;47.414;18.954;2023-09-08T09:02:43;6.40;;;4.13;;
64684;SDS011;51109;47.414;18.954;2023-09-08T09:05:14;5.90;;;4.03;;
64684;SDS011;51109;47.414;18.954;2023-09-08T09:07:43;5.72;;;4.53;;
64684;SDS011;51109;47.414;18.954;2023-09-08T09:10:09;6.47;;;4.40;;
64684;SDS011;51109;47.414;18.954;2023-09-08T09:12:36;5.47;;;3.97;;
64684;SDS011;51109;47.414;18.954;2023-09-08T09:15:03;4.60;;;4.10;;
64684;SDS011;51109;47.414;18.954;2023-09-08T09:17:30;5.80;;;3.90;;
64684;SDS011;51109;47.414;18.954;2023-09-08T09:20:12;6.53;;;4.18;;
64684;SDS011;51109;47.414;18.954;2023-09-08T09:22:46;6.55;;;4.07;;
64684;SDS011;51109;47.414;18.954;2023-09-08T09:25:27;5.57;;;3.95;;
64684;SDS011;51109;47.414;18.954;2023-09-08T09:27:55;6.50;;;4.37;;
64684;SDS011;51109;47.414;18.954;2023-09-08T09:30:22;5.75;;;4.88;;
64684;SDS011;51109;47.414;18.954;2023-09-08T09:32:59;8.02;;;4.60;;
64684;SDS011;51109;47.414;18.954;2023-09-08T09:35:40;4.85;;;4.32;;
64684;SDS011;51109;47.414;18.954;2023-09-08T09:38:10;4.35;;;3.83;;
64684;SDS011;51109;47.414;18.954;2023-09-08T09:40:37;4.05;;;3.60;;
64684;SDS011;51109;47.414;18.954;2023-09-08T09:43:04;5.95;;;3.88;;
64684;SDS011;51109;47.414;18.954;2023-09-08T09:45:31;4.82;;;4.15;;
64684;SDS011;51109;47.414;18.954;2023-09-08T09:48:04;5.22;;;4.10;;
64684;SDS011;51109;47.414;18.954;2023-09-08T09:52:59;6.18;;;3.63;;
64684;SDS011;51109;47.414;18.954;2023-09-08T09:55:26;4.78;;;3.53;;
64684;SDS011;51109;47.414;18.954;2023-09-08T09:57:58;5.50;;;3.20;;
64684;SDS011;51109;47.414;18.954;2023-09-08T10:00:26;5.35;;;3.47;;
64684;SDS011;51109;47.414;18.954;2023-09-08T10:02:53;4.75;;;4.10;;
64684;SDS011;51109;47.414;18.954;2023-09-08T10:05:19;4.80;;;3.60;;
64684;SDS011;51109;47.414;18.954;2023-09-08T10:07:48;4.70;;;3.53;;
64684;SDS011;51109;47.414;18.954;2023-09-08T10:10:15;7.88;;;3.97;;
64684;SDS011;51109;47.414;18.954;2023-09-08T10:12:43;4.88;;;3.67;;
64684;SDS011;51109;47.414;18.954;2023-09-08T10:15:12;3.47;;;3.17;;
64684;SDS011;51109;47.414;18.954;2023-09-08T10:17:41;5.95;;;4.53;;
64684;SDS011;51109;47.414;18.954;2023-09-08T10:20:09;5.03;;;4.00;;
64684;SDS011;51109;47.414;18.954;2023-09-08T10:22:38;4.55;;;3.50;;
64684;SDS011;51109;47.414;18.954;2023-09-08T10:25:08;4.55;;;3.97;;
64684;SDS011;51109;47.414;18.954;2023-09-08T10:27:37;6.57;;;4.20;;
64684;SDS011;51109;47.414;18.954;2023-09-08T10:30:04;7.07;;;4.78;;
64684;SDS011;51109;47.414;18.954;2023-09-08T10:32:32;5.80;;;4.10;;
64684;SDS011;51109;47.414;18.954;2023-09-08T10:35:01;5.32;;;4.38;;
64684;SDS011;51109;47.414;18.954;2023-09-08T10:37:28;6.03;;;3.75;;
64684;SDS011;51109;47.414;18.954;2023-09-08T10:42:46;5.05;;;4.07;;
64684;SDS011;51109;47.414;18.954;2023-09-08T10:45:16;7.40;;;3.72;;
64684;SDS011;51109;47.414;18.954;2023-09-08T10:50:19;4.20;;;3.67;;
64684;SDS011;51109;47.414;18.954;2023-09-08T10:55:42;3.90;;;3.50;;
64684;SDS011;51109;47.414;18.954;2023-09-08T11:00:46;4.95;;;3.50;;
64684;SDS011;51109;47.414;18.954;2023-09-08T11:03:25;4.40;;;3.80;;
64684;SDS011;51109;47.414;18.954;2023-09-08T11:06:16;7.45;;;3.88;;
64684;SDS011;51109;47.414;18.954;2023-09-08T11:08:49;3.75;;;3.15;;
64684;SDS011;51109;47.414;18.954;2023-09-08T11:11:18;4.95;;;3.53;;
64684;SDS011;51109;47.414;18.954;2023-09-08T11:13:44;5.20;;;3.35;;
64684;SDS011;51109;47.414;18.954;2023-09-08T11:16:13;4.80;;;3.50;;
64684;SDS011;51109;47.414;18.954;2023-09-08T11:18:40;4.00;;;3.50;;
64684;SDS011;51109;47.414;18.954;2023-09-08T11:21:08;3.97;;;3.00;;
64684;SDS011;51109;47.414;18.954;2023-09-08T11:23:35;5.13;;;3.63;;
64684;SDS011;51109;47.414;18.954;2023-09-08T11:26:01;3.75;;;3.15;;
64684;SDS011;51109;47.414;18.954;2023-09-08T11:28:29;3.70;;;3.30;;
64684;SDS011;51109;47.414;18.954;2023-09-08T11:30:56;5.47;;;3.67;;
64684;SDS011;51109;47.414;18.954;2023-09-08T11:33:22;3.97;;;3.20;;
64684;SDS011;51109;47.414;18.954;2023-09-08T11:35:52;5.88;;;3.38;;
64684;SDS011;51109;47.414;18.954;2023-09-08T11:38:24;3.40;;;3.03;;
64684;SDS011;51109;47.414;18.954;2023-09-08T11:40:55;3.38;;;2.83;;
64684;SDS011;51109;47.414;18.954;2023-09-08T11:43:23;3.60;;;3.30;;
64684;SDS011;51109;47.414;18.954;2023-09-08T11:45:49;5.10;;;3.40;;
64684;SDS011;51109;47.414;18.954;2023-09-08T11:48:15;5.30;;;3.65;;
64684;SDS011;51109;47.414;18.954;2023-09-08T11:50:41;4.50;;;3.35;;
64684;SDS011;51109;47.414;18.954;2023-09-08T11:53:08;3.40;;;3.03;;
64684;SDS011;51109;47.414;18.954;2023-09-08T11:55:34;3.60;;;3.28;;
64684;SDS011;51109;47.414;18.954;2023-09-08T11:58:03;3.53;;;3.22;;
64684;SDS011;51109;47.414;18.954;2023-09-08T12:00:29;4.32;;;3.40;;
64684;SDS011;51109;47.414;18.954;2023-09-08T12:02:55;3.88;;;3.33;;
64684;SDS011;51109;47.414;18.954;2023-09-08T12:05:37;4.78;;;3.33;;
64684;SDS011;51109;47.414;18.954;2023-09-08T12:08:04;3.70;;;2.97;;
64684;SDS011;51109;47.414;18.954;2023-09-08T12:10:30;4.07;;;3.10;;
64684;SDS011;51109;47.414;18.954;2023-09-08T12:13:04;4.93;;;3.22;;
64684;SDS011;51109;47.414;18.954;2023-09-08T12:15:36;3.50;;;3.10;;
64684;SDS011;51109;47.414;18.954;2023-09-08T12:18:04;5.47;;;3.33;;
64684;SDS011;51109;47.414;18.954;2023-09-08T12:20:31;3.78;;;3.13;;
64684;SDS011;51109;47.414;18.954;2023-09-08T12:23:04;4.65;;;2.80;;
64684;SDS011;51109;47.414;18.954;2023-09-08T12:25:46;4.90;;;3.65;;
64684;SDS011;51109;47.414;18.954;2023-09-08T12:28:13;4.95;;;2.78;;
64684;SDS011;51109;47.414;18.954;2023-09-08T12:30:39;4.22;;;3.38;;
64684;SDS011;51109;47.414;18.954;2023-09-08T12:33:04;5.70;;;3.35;;
64684;SDS011;51109;47.414;18.954;2023-09-08T12:35:30;4.30;;;2.90;;
64684;SDS011;51109;47.414;18.954;2023-09-08T12:38:00;4.82;;;3.75;;
64684;SDS011;51109;47.414;18.954;2023-09-08T12:40:28;5.07;;;3.20;;
64684;SDS011;51109;47.414;18.954;2023-09-08T12:42:55;4.20;;;3.08;;
64684;SDS011;51109;47.414;18.954;2023-09-08T12:45:23;3.33;;;3.00;;
64684;SDS011;51109;47.414;18.954;2023-09-08T12:47:50;3.25;;;2.95;;
64684;SDS011;51109;47.414;18.954;2023-09-08T12:50:17;3.35;;;2.63;;
64684;SDS011;51109;47.414;18.954;2023-09-08T12:52:43;3.08;;;2.78;;
64684;SDS011;51109;47.414;18.954;2023-09-08T12:55:09;3.28;;;2.97;;
64684;SDS011;51109;47.414;18.954;2023-09-08T12:57:36;3.65;;;3.10;;
64684;SDS011;51109;47.414;18.954;2023-09-08T13:00:05;3.28;;;2.97;;
64684;SDS011;51109;47.414;18.954;2023-09-08T13:02:32;5.10;;;2.88;;
64684;SDS011;51109;47.414;18.954;2023-09-08T13:04:59;3.55;;;3.25;;
64684;SDS011;51109;47.414;18.954;2023-09-08T13:07:26;4.55;;;3.53;;
64684;SDS011;51109;47.414;18.954;2023-09-08T13:09:52;3.25;;;2.60;;
64684;SDS011;51109;47.414;18.954;2023-09-08T13:12:18;3.10;;;2.55;;
64684;SDS011;51109;47.414;18.954;2023-09-08T13:14:44;4.43;;;3.63;;
64684;SDS011;51109;47.414;18.954;2023-09-08T13:17:10;3.38;;;2.95;;
64684;SDS011;51109;47.414;18.954;2023-09-08T13:19:37;5.03;;;3.25;;
64684;SDS011;51109;47.414;18.954;2023-09-08T13:22:06;3.50;;;3.13;;
64684;SDS011;51109;47.414;18.954;2023-09-08T13:24:32;4.45;;;3.15;;
64684;SDS011;51109;47.414;18.954;2023-09-08T13:26:59;5.38;;;2.90;;
64684;SDS011;51109;47.414;18.954;2023-09-08T13:29:25;4.35;;;3.33;;
64684;SDS011;51109;47.414;18.954;2023-09-08T13:31:54;5.95;;;3.03;;
64684;SDS011;51109;47.414;18.954;2023-09-08T13:34:21;4.65;;;3.03;;
64684;SDS011;51109;47.414;18.954;2023-09-08T13:36:47;3.80;;;3.28;;
64684;SDS011;51109;47.414;18.954;2023-09-08T13:39:13;3.92;;;2.88;;
64684;SDS011;51109;47.414;18.954;2023-09-08T13:41:49;4.03;;;3.28;;
64684;SDS011;51109;47.414;18.954;2023-09-08T13:44:17;3.72;;;3.28;;
64684;SDS011;51109;47.414;18.954;2023-09-08T13:46:45;5.10;;;3.72;;
64684;SDS011;51109;47.414;18.954;2023-09-08T13:49:15;3.97;;;3.30;;
64684;SDS011;51109;47.414;18.954;2023-09-08T13:51:41;3.17;;;2.67;;
64684;SDS011;51109;47.414;18.954;2023-09-08T13:54:08;4.68;;;3.05;;
64684;SDS011;51109;47.414;18.954;2023-09-08T13:56:34;4.05;;;3.10;;
64684;SDS011;51109;47.414;18.954;2023-09-08T13:59:01;3.63;;;3.10;;
64684;SDS011;51109;47.414;18.954;2023-09-08T14:01:27;3.05;;;2.75;;
64684;SDS011;51109;47.414;18.954;2023-09-08T14:03:55;2.92;;;2.63;;
64684;SDS011;51109;47.414;18.954;2023-09-08T14:06:22;3.97;;;3.00;;
64684;SDS011;51109;47.414;18.954;2023-09-08T14:08:49;4.43;;;3.15;;
64684;SDS011;51109;47.414;18.954;2023-09-08T14:11:15;4.85;;;3.88;;
64684;SDS011;51109;47.414;18.954;2023-09-08T14:13:41;5.30;;;3.45;;
64684;SDS011;51109;47.414;18.954;2023-09-08T14:16:08;5.65;;;3.47;;
64684;SDS011;51109;47.414;18.954;2023-09-08T14:18:34;3.95;;;3.35;;
64684;SDS011;51109;47.414;18.954;2023-09-08T14:21:00;3.83;;;3.15;;
64684;SDS011;51109;47.414;18.954;2023-09-08T14:23:26;4.20;;;3.63;;
64684;SDS011;51109;47.414;18.954;2023-09-08T14:25:52;3.63;;;3.20;;
64684;SDS011;51109;47.414;18.954;2023-09-08T14:28:17;6.47;;;3.40;;
64684;SDS011;51109;47.414;18.954;2023-09-08T14:30:43;3.80;;;3.03;;
64684;SDS011;51109;47.414;18.954;2023-09-08T14:33:10;4.18;;;3.20;;
64684;SDS011;51109;47.414;18.954;2023-09-08T14:35:40;3.50;;;3.08;;
64684;SDS011;51109;47.414;18.954;2023-09-08T14:38:09;4.13;;;3.75;;
64684;SDS011;51109;47.414;18.954;2023-09-08T14:40:35;4.97;;;3.35;;
64684;SDS011;51109;47.414;18.954;2023-09-08T14:43:01;4.28;;;3.22;;
64684;SDS011;51109;47.414;18.954;2023-09-08T14:45:28;4.05;;;3.00;;
64684;SDS011;51109;47.414;18.954;2023-09-08T14:47:53;4.10;;;3.45;;
64684;SDS011;51109;47.414;18.954;2023-09-08T14:50:19;5.50;;;3.25;;
64684;SDS011;51109;47.414;18.954;2023-09-08T14:52:45;4.57;;;3.40;;
64684;SDS011;51109;47.414;18.954;2023-09-08T14:55:11;4.90;;;3.45;;